sensor_id;sensor_type;location;lat;lon;timestamp;P1;P2;P0
56360;PMS7003;42611;51.132;13.588;2023-01-10T00:00:02;3.7;2.8;
56360;PMS7003;42611;51.132;13.588;2023-01-10T00:05:01;3.2;2.4;
56360;PMS7003;42611;51.132;13.588;2023-01-10T00:10:03;3.4;2.8;
56360;PMS7003;42611;51.132;13.588;2023-01-10T00:15:01;3.5;3.0;
56360;PMS7003;42611;51.132;13.588;2023-01-10T00:20:01;3.3;3.1;
56360;PMS7003;42611;51.132;13.588;2023-01-10T00:25:01;3.5;3.3;
56360;PMS7003;42611;51.132;13.588;2023-01-10T00:30:02;3.5;3.2;
56360;PMS7003;42611;51.132;13.588;2023-01-10T00:35:01;3.0;2.8;
56360;PMS7003;42611;51.132;13.588;2023-01-10T00:40:01;2.8;2.8;
56360;PMS7003;42611;51.132;13.588;2023-01-10T00:45:02;2.9;2.9;
56360;PMS7003;42611;51.132;13.588;2023-01-10T00:55:01;3.5;3.3;
56360;PMS7003;42611;51.132;13.588;2023-01-10T01:00:03;4.0;3.8;
56360;PMS7003;42611;51.132;13.588;2023-01-10T01:05:01;4.1;3.6;
56360;PMS7003;42611;51.132;13.588;2023-01-10T01:15:03;4.4;3.4;
56360;PMS7003;42611;51.132;13.588;2023-01-10T01:20:01;3.8;2.6;
56360;PMS7003;42611;51.132;13.588;2023-01-10T01:30:02;3.7;2.8;
56360;PMS7003;42611;51.132;13.588;2023-01-10T01:40:01;3.6;3.1;
56360;PMS7003;42611;51.132;13.588;2023-01-10T01:45:25;4.2;4.0;
56360;PMS7003;42611;51.132;13.588;2023-01-10T01:50:01;4.3;4.1;
56360;PMS7003;42611;51.132;13.588;2023-01-10T01:55:01;4.2;4.0;
56360;PMS7003;42611;51.132;13.588;2023-01-10T02:00:04;5.0;4.5;
56360;PMS7003;42611;51.132;13.588;2023-01-10T02:05:03;4.7;4.2;
56360;PMS7003;42611;51.132;13.588;2023-01-10T02:10:11;4.8;4.4;
56360;PMS7003;42611;51.132;13.588;2023-01-10T02:15:04;4.8;4.2;
56360;PMS7003;42611;51.132;13.588;2023-01-10T02:20:04;5.7;4.8;
56360;PMS7003;42611;51.132;13.588;2023-01-10T02:25:22;5.3;4.7;
56360;PMS7003;42611;51.132;13.588;2023-01-10T02:30:30;5.6;4.7;
56360;PMS7003;42611;51.132;13.588;2023-01-10T02:35:07;5.4;4.5;
56360;PMS7003;42611;51.132;13.588;2023-01-10T02:40:19;5.5;4.8;
56360;PMS7003;42611;51.132;13.588;2023-01-10T02:46:02;5.0;4.2;
56360;PMS7003;42611;51.132;13.588;2023-01-10T02:51:03;5.4;4.6;
56360;PMS7003;42611;51.132;13.588;2023-01-10T02:56:07;6.5;5.4;
56360;PMS7003;42611;51.132;13.588;2023-01-10T03:01:05;6.6;5.4;
56360;PMS7003;42611;51.132;13.588;2023-01-10T03:06:03;6.3;5.2;
56360;PMS7003;42611;51.132;13.588;2023-01-10T03:11:02;6.5;5.9;
56360;PMS7003;42611;51.132;13.588;2023-01-10T03:21:02;6.0;5.5;
56360;PMS7003;42611;51.132;13.588;2023-01-10T03:26:01;6.6;5.8;
56360;PMS7003;42611;51.132;13.588;2023-01-10T03:31:03;7.0;6.2;
56360;PMS7003;42611;51.132;13.588;2023-01-10T03:41:31;6.8;5.8;
56360;PMS7003;42611;51.132;13.588;2023-01-10T03:46:09;7.3;6.4;
56360;PMS7003;42611;51.132;13.588;2023-01-10T03:51:01;6.8;6.3;
56360;PMS7003;42611;51.132;13.588;2023-01-10T03:56:01;7.0;6.5;
56360;PMS7003;42611;51.132;13.588;2023-01-10T04:01:02;7.3;6.6;
56360;PMS7003;42611;51.132;13.588;2023-01-10T04:06:02;7.9;7.2;
56360;PMS7003;42611;51.132;13.588;2023-01-10T04:11:01;7.8;7.1;
56360;PMS7003;42611;51.132;13.588;2023-01-10T04:26:02;7.6;7.2;
56360;PMS7003;42611;51.132;13.588;2023-01-10T04:31:01;7.8;7.3;
56360;PMS7003;42611;51.132;13.588;2023-01-10T04:36:02;8.0;7.3;
56360;PMS7003;42611;51.132;13.588;2023-01-10T04:41:01;8.9;8.1;
56360;PMS7003;42611;51.132;13.588;2023-01-10T04:46:01;9.2;8.4;
56360;PMS7003;42611;51.132;13.588;2023-01-10T04:51:01;9.1;8.2;
56360;PMS7003;42611;51.132;13.588;2023-01-10T04:56:02;8.6;7.9;
56360;PMS7003;42611;51.132;13.588;2023-01-10T05:01:33;8.7;7.9;
56360;PMS7003;42611;51.132;13.588;2023-01-10T05:06:01;8.6;8.0;
56360;PMS7003;42611;51.132;13.588;2023-01-10T05:11:01;8.8;8.0;
56360;PMS7003;42611;51.132;13.588;2023-01-10T05:16:01;9.7;8.9;
56360;PMS7003;42611;51.132;13.588;2023-01-10T05:21:03;10.6;9.2;
56360;PMS7003;42611;51.132;13.588;2023-01-10T05:26:05;10.9;9.5;
56360;PMS7003;42611;51.132;13.588;2023-01-10T05:31:01;11.1;9.4;
56360;PMS7003;42611;51.132;13.588;2023-01-10T05:36:01;11.4;9.8;
56360;PMS7003;42611;51.132;13.588;2023-01-10T05:41:01;11.5;9.8;
56360;PMS7003;42611;51.132;13.588;2023-01-10T05:46:01;13.3;11.2;
56360;PMS7003;42611;51.132;13.588;2023-01-10T05:51:01;14.0;12.0;
56360;PMS7003;42611;51.132;13.588;2023-01-10T05:56:01;16.8;13.9;
56360;PMS7003;42611;51.132;13.588;2023-01-10T06:01:01;15.9;13.2;
56360;PMS7003;42611;51.132;13.588;2023-01-10T06:06:01;16.2;13.2;
56360;PMS7003;42611;51.132;13.588;2023-01-10T06:11:02;13.9;12.0;
56360;PMS7003;42611;51.132;13.588;2023-01-10T06:16:01;13.0;11.0;
56360;PMS7003;42611;51.132;13.588;2023-01-10T06:21:01;9.6;8.4;
56360;PMS7003;42611;51.132;13.588;2023-01-10T06:26:01;9.8;8.3;
56360;PMS7003;42611;51.132;13.588;2023-01-10T06:31:02;9.9;8.4;
56360;PMS7003;42611;51.132;13.588;2023-01-10T06:36:01;10.0;8.4;
56360;PMS7003;42611;51.132;13.588;2023-01-10T06:41:01;9.7;8.3;
56360;PMS7003;42611;51.132;13.588;2023-01-10T06:46:01;9.8;8.7;
56360;PMS7003;42611;51.132;13.588;2023-01-10T06:51:01;10.6;9.4;
56360;PMS7003;42611;51.132;13.588;2023-01-10T06:56:01;11.4;9.5;
56360;PMS7003;42611;51.132;13.588;2023-01-10T07:01:01;12.0;9.3;
56360;PMS7003;42611;51.132;13.588;2023-01-10T07:06:01;12.8;10.2;
56360;PMS7003;42611;51.132;13.588;2023-01-10T07:11:01;13.2;10.3;
56360;PMS7003;42611;51.132;13.588;2023-01-10T07:16:03;13.4;10.3;
56360;PMS7003;42611;51.132;13.588;2023-01-10T07:21:01;12.6;10.2;
56360;PMS7003;42611;51.132;13.588;2023-01-10T07:26:02;12.9;11.0;
56360;PMS7003;42611;51.132;13.588;2023-01-10T07:31:02;12.4;10.7;
56360;PMS7003;42611;51.132;13.588;2023-01-10T07:36:02;12.9;11.3;
56360;PMS7003;42611;51.132;13.588;2023-01-10T07:41:01;12.4;11.6;
56360;PMS7003;42611;51.132;13.588;2023-01-10T07:46:03;12.2;11.3;
56360;PMS7003;42611;51.132;13.588;2023-01-10T07:51:01;11.6;11.1;
56360;PMS7003;42611;51.132;13.588;2023-01-10T07:56:01;12.0;11.2;
56360;PMS7003;42611;51.132;13.588;2023-01-10T08:01:02;11.6;10.4;
56360;PMS7003;42611;51.132;13.588;2023-01-10T08:06:02;10.8;9.5;
56360;PMS7003;42611;51.132;13.588;2023-01-10T08:11:01;10.7;9.6;
56360;PMS7003;42611;51.132;13.588;2023-01-10T08:16:03;10.9;9.6;
56360;PMS7003;42611;51.132;13.588;2023-01-10T08:21:01;10.0;9.0;
56360;PMS7003;42611;51.132;13.588;2023-01-10T08:26:01;10.6;9.3;
56360;PMS7003;42611;51.132;13.588;2023-01-10T08:31:09;11.4;9.6;
56360;PMS7003;42611;51.132;13.588;2023-01-10T08:36:01;11.1;9.6;
56360;PMS7003;42611;51.132;13.588;2023-01-10T08:41:03;10.1;8.8;
56360;PMS7003;42611;51.132;13.588;2023-01-10T08:46:01;10.8;9.2;
56360;PMS7003;42611;51.132;13.588;2023-01-10T08:51:06;9.1;8.2;
56360;PMS7003;42611;51.132;13.588;2023-01-10T08:56:01;8.6;7.8;
56360;PMS7003;42611;51.132;13.588;2023-01-10T09:01:03;8.1;6.8;
56360;PMS7003;42611;51.132;13.588;2023-01-10T09:06:02;7.7;6.4;
56360;PMS7003;42611;51.132;13.588;2023-01-10T09:11:01;6.5;5.6;
56360;PMS7003;42611;51.132;13.588;2023-01-10T09:16:01;6.7;5.8;
56360;PMS7003;42611;51.132;13.588;2023-01-10T09:21:01;5.7;5.2;
56360;PMS7003;42611;51.132;13.588;2023-01-10T09:26:01;5.4;5.0;
56360;PMS7003;42611;51.132;13.588;2023-01-10T09:41:14;5.6;4.4;
56360;PMS7003;42611;51.132;13.588;2023-01-10T09:46:03;6.1;4.7;
56360;PMS7003;42611;51.132;13.588;2023-01-10T09:51:09;5.7;4.3;
56360;PMS7003;42611;51.132;13.588;2023-01-10T09:56:01;5.9;4.8;
56360;PMS7003;42611;51.132;13.588;2023-01-10T10:01:03;6.5;5.4;
56360;PMS7003;42611;51.132;13.588;2023-01-10T10:11:14;7.3;6.4;
56360;PMS7003;42611;51.132;13.588;2023-01-10T10:16:05;9.1;8.1;
56360;PMS7003;42611;51.132;13.588;2023-01-10T10:21:03;9.8;8.6;
56360;PMS7003;42611;51.132;13.588;2023-01-10T10:26:06;9.7;7.9;
56360;PMS7003;42611;51.132;13.588;2023-01-10T10:31:20;9.8;8.0;
56360;PMS7003;42611;51.132;13.588;2023-01-10T10:36:03;9.0;7.4;
56360;PMS7003;42611;51.132;13.588;2023-01-10T10:41:01;8.2;6.5;
56360;PMS7003;42611;51.132;13.588;2023-01-10T10:46:07;7.1;5.6;
56360;PMS7003;42611;51.132;13.588;2023-01-10T10:51:03;6.2;5.6;
56360;PMS7003;42611;51.132;13.588;2023-01-10T10:56:02;5.8;5.1;
56360;PMS7003;42611;51.132;13.588;2023-01-10T11:01:02;5.4;4.7;
56360;PMS7003;42611;51.132;13.588;2023-01-10T11:06:01;5.2;4.5;
56360;PMS7003;42611;51.132;13.588;2023-01-10T11:11:01;5.5;4.6;
56360;PMS7003;42611;51.132;13.588;2023-01-10T11:16:03;6.0;5.0;
56360;PMS7003;42611;51.132;13.588;2023-01-10T11:21:11;6.4;5.4;
56360;PMS7003;42611;51.132;13.588;2023-01-10T11:26:01;7.0;5.7;
56360;PMS7003;42611;51.132;13.588;2023-01-10T11:31:01;6.8;6.0;
56360;PMS7003;42611;51.132;13.588;2023-01-10T11:36:02;7.7;7.0;
56360;PMS7003;42611;51.132;13.588;2023-01-10T11:41:05;7.4;6.8;
56360;PMS7003;42611;51.132;13.588;2023-01-10T11:47:03;8.7;7.2;
56360;PMS7003;42611;51.132;13.588;2023-01-10T11:52:04;9.4;7.4;
56360;PMS7003;42611;51.132;13.588;2023-01-10T11:57:02;9.6;7.3;
56360;PMS7003;42611;51.132;13.588;2023-01-10T12:02:09;9.1;6.1;
56360;PMS7003;42611;51.132;13.588;2023-01-10T12:12:02;7.6;5.2;
56360;PMS7003;42611;51.132;13.588;2023-01-10T12:17:01;5.9;4.6;
56360;PMS7003;42611;51.132;13.588;2023-01-10T12:22:01;6.6;5.2;
56360;PMS7003;42611;51.132;13.588;2023-01-10T12:27:02;6.5;5.8;
56360;PMS7003;42611;51.132;13.588;2023-01-10T12:32:02;6.6;5.8;
56360;PMS7003;42611;51.132;13.588;2023-01-10T12:42:11;6.6;6.0;
56360;PMS7003;42611;51.132;13.588;2023-01-10T12:47:27;5.5;5.2;
56360;PMS7003;42611;51.132;13.588;2023-01-10T12:52:05;5.3;5.0;
56360;PMS7003;42611;51.132;13.588;2023-01-10T12:57:03;5.0;4.8;
56360;PMS7003;42611;51.132;13.588;2023-01-10T13:02:05;5.1;5.0;
56360;PMS7003;42611;51.132;13.588;2023-01-10T13:07:01;4.9;4.6;
56360;PMS7003;42611;51.132;13.588;2023-01-10T13:12:04;4.7;4.1;
56360;PMS7003;42611;51.132;13.588;2023-01-10T13:17:03;4.5;3.9;
56360;PMS7003;42611;51.132;13.588;2023-01-10T13:23:10;4.6;4.0;
56360;PMS7003;42611;51.132;13.588;2023-01-10T13:28:04;4.2;3.3;
56360;PMS7003;42611;51.132;13.588;2023-01-10T13:33:03;3.9;3.1;
56360;PMS7003;42611;51.132;13.588;2023-01-10T13:38:01;4.2;3.2;
56360;PMS7003;42611;51.132;13.588;2023-01-10T13:43:59;3.8;2.8;
56360;PMS7003;42611;51.132;13.588;2023-01-10T13:48:03;4.1;2.8;
56360;PMS7003;42611;51.132;13.588;2023-01-10T13:54:00;4.8;3.5;
56360;PMS7003;42611;51.132;13.588;2023-01-10T14:03:01;6.0;4.8;
56360;PMS7003;42611;51.132;13.588;2023-01-10T14:08:01;6.6;5.3;
56360;PMS7003;42611;51.132;13.588;2023-01-10T14:13:02;6.5;5.5;
56360;PMS7003;42611;51.132;13.588;2023-01-10T14:18:02;6.6;5.8;
56360;PMS7003;42611;51.132;13.588;2023-01-10T14:23:07;6.0;5.3;
56360;PMS7003;42611;51.132;13.588;2023-01-10T14:28:01;6.9;6.2;
56360;PMS7003;42611;51.132;13.588;2023-01-10T14:34:01;6.5;6.0;
56360;PMS7003;42611;51.132;13.588;2023-01-10T14:39:03;6.6;6.1;
56360;PMS7003;42611;51.132;13.588;2023-01-10T14:44:05;5.9;5.6;
56360;PMS7003;42611;51.132;13.588;2023-01-10T14:49:14;5.7;5.3;
56360;PMS7003;42611;51.132;13.588;2023-01-10T14:54:02;5.8;5.0;
56360;PMS7003;42611;51.132;13.588;2023-01-10T14:59:34;6.6;5.8;
56360;PMS7003;42611;51.132;13.588;2023-01-10T15:04:01;7.3;6.4;
56360;PMS7003;42611;51.132;13.588;2023-01-10T15:09:01;7.7;6.4;
56360;PMS7003;42611;51.132;13.588;2023-01-10T15:14:04;7.6;6.4;
56360;PMS7003;42611;51.132;13.588;2023-01-10T15:19:01;6.4;5.8;
56360;PMS7003;42611;51.132;13.588;2023-01-10T15:24:01;5.6;5.0;
56360;PMS7003;42611;51.132;13.588;2023-01-10T15:29:04;4.8;3.7;
56360;PMS7003;42611;51.132;13.588;2023-01-10T15:34:04;5.0;4.0;
56360;PMS7003;42611;51.132;13.588;2023-01-10T15:39:01;5.9;4.4;
56360;PMS7003;42611;51.132;13.588;2023-01-10T15:44:20;6.6;5.1;
56360;PMS7003;42611;51.132;13.588;2023-01-10T15:49:01;7.4;5.8;
56360;PMS7003;42611;51.132;13.588;2023-01-10T15:54:27;8.0;6.8;
56360;PMS7003;42611;51.132;13.588;2023-01-10T15:59:01;8.5;7.0;
56360;PMS7003;42611;51.132;13.588;2023-01-10T16:04:02;8.0;6.9;
56360;PMS7003;42611;51.132;13.588;2023-01-10T16:09:03;7.7;6.5;
56360;PMS7003;42611;51.132;13.588;2023-01-10T16:14:01;8.3;6.4;
56360;PMS7003;42611;51.132;13.588;2023-01-10T16:19:03;8.4;6.6;
56360;PMS7003;42611;51.132;13.588;2023-01-10T16:24:01;7.9;6.7;
56360;PMS7003;42611;51.132;13.588;2023-01-10T16:29:01;8.1;6.9;
56360;PMS7003;42611;51.132;13.588;2023-01-10T16:34:01;9.6;7.7;
56360;PMS7003;42611;51.132;13.588;2023-01-10T16:39:05;9.2;8.0;
56360;PMS7003;42611;51.132;13.588;2023-01-10T16:44:01;10.2;9.1;
56360;PMS7003;42611;51.132;13.588;2023-01-10T16:49:01;10.5;9.5;
56360;PMS7003;42611;51.132;13.588;2023-01-10T16:54:01;11.0;9.9;
56360;PMS7003;42611;51.132;13.588;2023-01-10T16:59:02;10.0;9.6;
56360;PMS7003;42611;51.132;13.588;2023-01-10T17:04:05;9.9;9.2;
56360;PMS7003;42611;51.132;13.588;2023-01-10T17:09:01;9.8;8.4;
56360;PMS7003;42611;51.132;13.588;2023-01-10T17:14:01;9.3;8.1;
56360;PMS7003;42611;51.132;13.588;2023-01-10T17:19:01;9.2;7.8;
56360;PMS7003;42611;51.132;13.588;2023-01-10T17:24:01;10.5;8.8;
56360;PMS7003;42611;51.132;13.588;2023-01-10T17:34:01;9.8;8.9;
56360;PMS7003;42611;51.132;13.588;2023-01-10T17:39:01;10.4;9.3;
56360;PMS7003;42611;51.132;13.588;2023-01-10T17:44:01;11.1;9.8;
56360;PMS7003;42611;51.132;13.588;2023-01-10T17:49:01;9.6;8.7;
56360;PMS7003;42611;51.132;13.588;2023-01-10T17:54:01;10.1;9.2;
56360;PMS7003;42611;51.132;13.588;2023-01-10T17:59:01;9.6;9.0;
56360;PMS7003;42611;51.132;13.588;2023-01-10T18:05:01;9.1;8.5;
56360;PMS7003;42611;51.132;13.588;2023-01-10T18:10:01;8.9;8.1;
56360;PMS7003;42611;51.132;13.588;2023-01-10T18:15:02;9.8;9.0;
56360;PMS7003;42611;51.132;13.588;2023-01-10T18:20:01;12.0;10.1;
56360;PMS7003;42611;51.132;13.588;2023-01-10T18:25:01;13.9;11.6;
56360;PMS7003;42611;51.132;13.588;2023-01-10T18:30:02;14.6;12.0;
56360;PMS7003;42611;51.132;13.588;2023-01-10T18:35:01;13.9;11.9;
56360;PMS7003;42611;51.132;13.588;2023-01-10T18:40:01;13.4;11.1;
56360;PMS7003;42611;51.132;13.588;2023-01-10T18:45:03;10.1;8.8;
56360;PMS7003;42611;51.132;13.588;2023-01-10T18:50:01;8.1;7.0;
56360;PMS7003;42611;51.132;13.588;2023-01-10T18:56:02;7.4;6.8;
56360;PMS7003;42611;51.132;13.588;2023-01-10T19:11:18;8.2;7.1;
56360;PMS7003;42611;51.132;13.588;2023-01-10T19:16:18;8.7;7.8;
56360;PMS7003;42611;51.132;13.588;2023-01-10T19:21:02;9.0;7.9;
56360;PMS7003;42611;51.132;13.588;2023-01-10T19:26:01;9.8;8.2;
56360;PMS7003;42611;51.132;13.588;2023-01-10T19:31:06;10.9;8.8;
56360;PMS7003;42611;51.132;13.588;2023-01-10T19:36:06;10.8;8.8;
56360;PMS7003;42611;51.132;13.588;2023-01-10T19:41:01;10.5;8.4;
56360;PMS7003;42611;51.132;13.588;2023-01-10T19:46:09;9.5;7.7;
56360;PMS7003;42611;51.132;13.588;2023-01-10T19:51:03;8.2;7.0;
56360;PMS7003;42611;51.132;13.588;2023-01-10T19:56:02;6.5;6.1;
56360;PMS7003;42611;51.132;13.588;2023-01-10T20:01:09;5.8;5.4;
56360;PMS7003;42611;51.132;13.588;2023-01-10T20:06:03;5.4;4.9;
56360;PMS7003;42611;51.132;13.588;2023-01-10T20:12:01;6.5;5.6;
56360;PMS7003;42611;51.132;13.588;2023-01-10T20:17:01;8.2;7.1;
56360;PMS7003;42611;51.132;13.588;2023-01-10T20:22:01;9.3;8.3;
56360;PMS7003;42611;51.132;13.588;2023-01-10T20:27:01;10.4;9.3;
56360;PMS7003;42611;51.132;13.588;2023-01-10T20:32:01;12.6;10.7;
56360;PMS7003;42611;51.132;13.588;2023-01-10T20:37:01;13.2;11.1;
56360;PMS7003;42611;51.132;13.588;2023-01-10T20:42:01;12.3;10.2;
56360;PMS7003;42611;51.132;13.588;2023-01-10T20:47:01;12.6;10.0;
56360;PMS7003;42611;51.132;13.588;2023-01-10T20:52:01;13.1;10.1;
56360;PMS7003;42611;51.132;13.588;2023-01-10T20:57:02;11.7;9.5;
56360;PMS7003;42611;51.132;13.588;2023-01-10T21:02:02;11.3;9.8;
56360;PMS7003;42611;51.132;13.588;2023-01-10T21:07:02;11.9;10.4;
56360;PMS7003;42611;51.132;13.588;2023-01-10T21:12:25;11.8;10.6;
56360;PMS7003;42611;51.132;13.588;2023-01-10T21:17:01;12.5;11.2;
56360;PMS7003;42611;51.132;13.588;2023-01-10T21:22:01;13.3;12.0;
56360;PMS7003;42611;51.132;13.588;2023-01-10T21:27:01;15.5;13.2;
56360;PMS7003;42611;51.132;13.588;2023-01-10T21:32:02;16.4;14.0;
56360;PMS7003;42611;51.132;13.588;2023-01-10T21:37:01;17.3;14.4;
56360;PMS7003;42611;51.132;13.588;2023-01-10T21:42:01;15.9;13.8;
56360;PMS7003;42611;51.132;13.588;2023-01-10T21:47:01;15.6;13.4;
56360;PMS7003;42611;51.132;13.588;2023-01-10T21:52:01;12.8;11.4;
56360;PMS7003;42611;51.132;13.588;2023-01-10T21:57:01;10.8;9.4;
56360;PMS7003;42611;51.132;13.588;2023-01-10T22:02:01;8.9;8.0;
56360;PMS7003;42611;51.132;13.588;2023-01-10T22:07:02;7.8;6.9;
56360;PMS7003;42611;51.132;13.588;2023-01-10T22:12:02;7.2;5.9;
56360;PMS7003;42611;51.132;13.588;2023-01-10T22:17:01;7.0;5.6;
56360;PMS7003;42611;51.132;13.588;2023-01-10T22:22:01;7.5;5.5;
56360;PMS7003;42611;51.132;13.588;2023-01-10T22:27:01;6.8;5.2;
56360;PMS7003;42611;51.132;13.588;2023-01-10T22:32:01;6.7;4.8;
56360;PMS7003;42611;51.132;13.588;2023-01-10T22:37:01;9.3;6.9;
56360;PMS7003;42611;51.132;13.588;2023-01-10T22:42:01;11.4;9.2;
56360;PMS7003;42611;51.132;13.588;2023-01-10T22:47:01;13.5;11.4;
56360;PMS7003;42611;51.132;13.588;2023-01-10T22:52:01;14.4;12.1;
56360;PMS7003;42611;51.132;13.588;2023-01-10T22:57:01;14.9;12.6;
56360;PMS7003;42611;51.132;13.588;2023-01-10T23:02:01;12.8;10.8;
56360;PMS7003;42611;51.132;13.588;2023-01-10T23:07:02;11.1;9.0;
56360;PMS7003;42611;51.132;13.588;2023-01-10T23:12:01;9.6;7.6;
56360;PMS7003;42611;51.132;13.588;2023-01-10T23:17:01;10.2;7.8;
56360;PMS7003;42611;51.132;13.588;2023-01-10T23:22:01;11.0;8.6;
56360;PMS7003;42611;51.132;13.588;2023-01-10T23:27:01;11.6;9.4;
56360;PMS7003;42611;51.132;13.588;2023-01-10T23:33:01;11.3;9.4;
56360;PMS7003;42611;51.132;13.588;2023-01-10T23:38:01;11.4;9.7;
56360;PMS7003;42611;51.132;13.588;2023-01-10T23:43:01;11.9;10.4;
56360;PMS7003;42611;51.132;13.588;2023-01-10T23:48:01;12.5;11.1;
56360;PMS7003;42611;51.132;13.588;2023-01-10T23:53:01;13.5;12.1;
56360;PMS7003;42611;51.132;13.588;2023-01-10T23:58:01;15.7;14.1;
